createdAt,value
2018-07-25T00:00:33.282Z,26.00
2018-07-25T00:03:00.649Z,25.90
2018-07-25T00:05:28.146Z,25.90
2018-07-25T00:07:55.598Z,25.80
2018-07-25T00:10:27.581Z,25.90
2018-07-25T00:12:55.072Z,25.80
2018-07-25T00:15:22.501Z,25.80
2018-07-25T00:17:49.928Z,25.70
2018-07-25T00:20:17.409Z,25.70
2018-07-25T00:22:44.871Z,25.60
2018-07-25T00:25:12.369Z,25.50
2018-07-25T00:27:39.892Z,25.60
2018-07-25T00:30:07.419Z,25.50
2018-07-25T00:32:34.879Z,25.50
2018-07-25T00:35:02.373Z,25.60
2018-07-25T00:37:29.931Z,25.60
2018-07-25T00:39:57.427Z,25.50
2018-07-25T00:42:24.877Z,25.50
2018-07-25T00:44:52.369Z,25.50
2018-07-25T00:47:19.897Z,25.40
2018-07-25T00:49:47.310Z,25.40
2018-07-25T00:52:14.720Z,25.40
2018-07-25T00:54:42.162Z,25.40
2018-07-25T00:57:09.535Z,25.30
2018-07-25T00:59:37.062Z,25.30
2018-07-25T01:02:04.501Z,25.20
2018-07-25T01:04:31.946Z,25.10
2018-07-25T01:06:59.411Z,25.00
2018-07-25T01:09:26.902Z,25.00
2018-07-25T01:11:54.336Z,24.90
2018-07-25T01:14:21.832Z,24.90
2018-07-25T01:16:49.334Z,24.90
2018-07-25T01:19:16.765Z,24.80
2018-07-25T01:21:44.343Z,24.80
2018-07-25T01:24:11.777Z,24.70
2018-07-25T01:26:39.150Z,24.60
2018-07-25T01:29:06.628Z,24.60
2018-07-25T01:31:34.164Z,24.50
2018-07-25T01:34:01.618Z,24.50
2018-07-25T01:38:56.504Z,24.50
2018-07-25T01:41:23.896Z,24.40
2018-07-25T01:43:51.323Z,24.40
2018-07-25T01:46:18.782Z,24.40
2018-07-25T01:48:46.280Z,24.30
2018-07-25T01:51:13.751Z,24.30
2018-07-25T01:53:41.260Z,24.30
2018-07-25T01:56:08.843Z,24.40
2018-07-25T01:58:36.213Z,24.30
2018-07-25T02:01:03.677Z,24.30
2018-07-25T02:03:31.179Z,24.30
2018-07-25T02:05:58.630Z,24.20
2018-07-25T02:08:26.109Z,24.20
2018-07-25T02:10:53.604Z,24.10
2018-07-25T02:13:21.033Z,24.10
2018-07-25T02:15:48.527Z,24.00
2018-07-25T02:18:16.076Z,24.00
2018-07-25T02:20:43.521Z,24.00
2018-07-25T02:23:11.007Z,24.00
2018-07-25T02:25:38.487Z,24.00
2018-07-25T02:28:06.033Z,24.00
2018-07-25T02:30:33.527Z,24.00
2018-07-25T02:33:00.971Z,24.00
2018-07-25T02:35:28.403Z,23.90
2018-07-25T02:37:55.908Z,23.90
2018-07-25T02:40:23.876Z,23.80
2018-07-25T02:42:51.450Z,23.70
2018-07-25T02:45:18.982Z,23.70
2018-07-25T02:47:46.555Z,23.80
2018-07-25T02:50:14.071Z,23.80
2018-07-25T02:52:41.540Z,23.70
2018-07-25T02:55:08.979Z,23.60
2018-07-25T02:57:36.398Z,23.60
2018-07-25T03:00:04.948Z,23.50
2018-07-25T03:02:32.386Z,23.30
2018-07-25T03:04:59.856Z,23.30
2018-07-25T03:07:27.273Z,23.30
2018-07-25T03:09:54.789Z,23.30
2018-07-25T03:12:22.232Z,23.40
2018-07-25T03:14:49.754Z,23.40
2018-07-25T03:17:17.175Z,23.40
2018-07-25T03:19:44.633Z,23.30
2018-07-25T03:22:12.076Z,23.30
2018-07-25T03:24:39.594Z,23.20
2018-07-25T03:27:07.249Z,23.20
2018-07-25T03:29:34.791Z,23.10
2018-07-25T03:32:02.277Z,23.10
2018-07-25T03:34:29.726Z,23.10
2018-07-25T03:36:57.258Z,23.00
2018-07-25T03:39:24.664Z,23.10
2018-07-25T03:41:52.065Z,23.00
2018-07-25T03:44:19.596Z,23.00
2018-07-25T03:46:47.064Z,23.00
2018-07-25T03:49:14.547Z,23.00
2018-07-25T03:51:42.123Z,23.00
2018-07-25T03:54:09.602Z,22.90
2018-07-25T03:56:37.035Z,22.90
2018-07-25T03:59:04.438Z,22.90
2018-07-25T04:01:31.853Z,22.80
2018-07-25T04:03:59.418Z,22.90
2018-07-25T04:06:26.876Z,22.90
2018-07-25T04:08:54.342Z,22.90
2018-07-25T04:11:21.793Z,22.90
2018-07-25T04:13:49.234Z,22.90
2018-07-25T04:16:16.792Z,22.90
2018-07-25T04:18:44.300Z,22.90
2018-07-25T04:21:11.787Z,22.90
2018-07-25T04:23:39.158Z,22.90
2018-07-25T04:26:06.625Z,23.00
2018-07-25T04:28:34.114Z,22.90
2018-07-25T04:31:01.660Z,22.90
2018-07-25T04:33:29.082Z,22.90
2018-07-25T04:35:56.762Z,22.90
2018-07-25T04:38:24.264Z,22.90
2018-07-25T04:40:52.595Z,22.80
2018-07-25T04:43:20.028Z,22.90
2018-07-25T04:45:47.591Z,23.00
2018-07-25T04:48:15.105Z,23.00
2018-07-25T04:50:42.511Z,22.90
2018-07-25T04:53:09.981Z,23.00
2018-07-25T04:55:37.407Z,23.00
2018-07-25T04:58:04.883Z,22.90
2018-07-25T05:00:32.416Z,22.90
2018-07-25T05:02:59.908Z,22.90
2018-07-25T05:05:27.557Z,22.90
2018-07-25T05:07:55.101Z,23.00
2018-07-25T05:10:22.693Z,23.00
2018-07-25T05:12:50.100Z,23.10
2018-07-25T05:15:17.646Z,23.10
2018-07-25T05:17:45.040Z,23.20
2018-07-25T05:22:39.980Z,23.30
2018-07-25T05:25:07.539Z,23.20
2018-07-25T05:27:34.968Z,23.30
2018-07-25T05:30:02.580Z,23.30
2018-07-25T05:32:30.102Z,23.40
2018-07-25T05:34:57.565Z,23.40
2018-07-25T05:37:25.144Z,23.40
2018-07-25T05:39:52.655Z,23.50
2018-07-25T05:42:20.068Z,23.50
2018-07-25T05:44:47.532Z,23.50
2018-07-25T05:47:15.008Z,23.60
2018-07-25T05:49:42.527Z,23.60
2018-07-25T05:52:09.996Z,23.60
2018-07-25T05:54:37.445Z,23.60
2018-07-25T05:57:04.835Z,23.60
2018-07-25T05:59:32.277Z,23.60
2018-07-25T06:01:59.803Z,23.70
2018-07-25T06:04:27.373Z,23.60
2018-07-25T06:06:54.766Z,23.70
2018-07-25T06:09:22.251Z,23.80
2018-07-25T06:11:49.732Z,23.70
2018-07-25T06:14:17.390Z,23.80
2018-07-25T06:16:44.877Z,23.90
2018-07-25T06:19:12.285Z,24.00
2018-07-25T06:21:39.711Z,24.10
2018-07-25T06:24:07.184Z,24.10
2018-07-25T06:26:34.632Z,24.20
2018-07-25T06:29:02.237Z,24.30
2018-07-25T06:31:29.783Z,24.20
2018-07-25T06:33:57.263Z,24.20
2018-07-25T06:36:24.747Z,24.30
2018-07-25T06:38:52.077Z,24.50
2018-07-25T06:41:20.174Z,24.60
2018-07-25T06:43:48.065Z,24.60
2018-07-25T06:46:15.483Z,24.60
2018-07-25T06:48:42.895Z,24.60
2018-07-25T06:51:10.338Z,24.70
2018-07-25T06:53:37.794Z,24.70
2018-07-25T06:56:05.303Z,24.90
2018-07-25T06:58:32.763Z,24.90
2018-07-25T07:01:00.191Z,25.00
2018-07-25T07:03:27.712Z,25.00
2018-07-25T07:05:56.043Z,25.00
2018-07-25T07:08:25.198Z,25.10
2018-07-25T07:10:52.686Z,25.10
2018-07-25T07:13:20.246Z,25.20
2018-07-25T07:15:47.890Z,25.30
2018-07-25T07:18:15.442Z,25.40
2018-07-25T07:20:42.856Z,25.50
2018-07-25T07:23:10.292Z,25.50
2018-07-25T07:25:37.737Z,25.50
2018-07-25T07:28:05.837Z,25.60
2018-07-25T07:30:33.582Z,25.70
2018-07-25T07:33:01.154Z,25.70
2018-07-25T07:35:28.721Z,25.70
2018-07-25T07:37:56.265Z,25.80
2018-07-25T07:40:23.984Z,25.90
2018-07-25T07:42:51.917Z,25.90
2018-07-25T07:45:19.590Z,25.90
2018-07-25T07:47:47.396Z,26.00
2018-07-25T07:50:14.957Z,25.90
2018-07-25T07:52:42.636Z,26.00
2018-07-25T07:55:10.349Z,26.10
2018-07-25T07:57:38.126Z,26.20
2018-07-25T08:00:06.610Z,26.20
2018-07-25T08:02:34.267Z,26.30
2018-07-25T08:05:01.932Z,26.30
2018-07-25T08:07:29.419Z,26.40
2018-07-25T08:09:57.143Z,26.30
2018-07-25T08:12:24.623Z,26.30
2018-07-25T08:14:52.296Z,26.40
2018-07-25T08:17:20.170Z,26.50
2018-07-25T08:19:50.097Z,26.60
2018-07-25T08:22:17.775Z,26.70
2018-07-25T08:24:45.419Z,26.70
2018-07-25T08:27:13.046Z,26.60
2018-07-25T08:29:40.766Z,26.70
2018-07-25T08:32:08.404Z,26.80
2018-07-25T08:34:36.008Z,26.90
2018-07-25T08:37:03.539Z,27.00
2018-07-25T08:39:31.422Z,27.00
2018-07-25T08:41:58.968Z,27.00
2018-07-25T08:44:26.584Z,27.20
2018-07-25T08:46:54.508Z,27.10
2018-07-25T08:49:21.874Z,27.30
2018-07-25T08:51:49.709Z,27.30
2018-07-25T08:54:23.121Z,27.40
2018-07-25T08:56:50.695Z,27.60
2018-07-25T08:59:19.030Z,27.60
2018-07-25T09:01:46.648Z,27.70
2018-07-25T09:04:14.135Z,27.70
2018-07-25T09:06:42.392Z,27.80
2018-07-25T09:09:10.885Z,27.80
2018-07-25T09:11:38.903Z,27.90
2018-07-25T09:14:06.380Z,27.90
2018-07-25T09:16:34.162Z,28.00
2018-07-25T09:19:03.535Z,28.10
2018-07-25T09:21:34.284Z,28.10
2018-07-25T09:24:02.804Z,28.30
2018-07-25T09:26:44.499Z,28.40
2018-07-25T09:29:11.926Z,28.50
2018-07-25T09:31:47.832Z,28.80
2018-07-25T09:34:15.565Z,28.80
2018-07-25T09:36:43.106Z,28.80
2018-07-25T09:39:11.360Z,28.90
2018-07-25T09:44:32.220Z,29.10
2018-07-25T09:47:07.116Z,29.00
2018-07-25T09:55:14.150Z,29.50
2018-07-25T10:00:40.213Z,29.80
2018-07-25T10:03:07.688Z,30.00
2018-07-25T10:05:35.133Z,30.10
2018-07-25T10:08:29.884Z,30.30
2018-07-25T10:10:57.510Z,30.60
2018-07-25T10:13:25.124Z,30.90
2018-07-25T10:16:02.070Z,31.10
2018-07-25T10:18:31.729Z,31.20
2018-07-25T10:20:59.271Z,31.50
2018-07-25T10:23:26.914Z,31.70
2018-07-25T10:25:54.489Z,31.90
2018-07-25T10:28:21.909Z,32.10
2018-07-25T10:30:50.444Z,32.20
2018-07-25T10:33:25.396Z,32.30
2018-07-25T10:36:05.769Z,32.50
2018-07-25T10:38:33.529Z,32.60
2018-07-25T10:41:01.052Z,32.80
2018-07-25T10:43:28.545Z,33.10
2018-07-25T10:45:56.048Z,33.20
2018-07-25T10:48:23.524Z,33.30
2018-07-25T10:50:51.090Z,33.10
2018-07-25T10:53:28.136Z,33.10
2018-07-25T10:55:55.756Z,33.00
2018-07-25T10:58:23.255Z,33.20
2018-07-25T11:00:52.134Z,33.40
2018-07-25T11:03:19.824Z,33.50
2018-07-25T11:05:47.215Z,33.40
2018-07-25T11:08:29.851Z,33.30
2018-07-25T11:10:57.840Z,33.20
2018-07-25T11:13:28.955Z,33.20
2018-07-25T11:16:12.561Z,33.10
2018-07-25T11:18:41.808Z,33.20
2018-07-25T11:21:35.333Z,33.50
2018-07-25T11:24:10.306Z,33.70
2018-07-25T11:27:02.628Z,33.70
2018-07-25T11:32:35.173Z,33.70
2018-07-25T11:35:03.708Z,33.80
2018-07-25T11:37:49.127Z,33.80
2018-07-25T11:40:30.760Z,33.90
2018-07-25T11:42:59.059Z,34.00
2018-07-25T11:45:28.100Z,34.10
2018-07-25T11:48:14.890Z,34.30
2018-07-25T11:51:05.790Z,34.40
2018-07-25T11:56:31.742Z,34.50
2018-07-25T11:59:14.478Z,34.60
2018-07-25T12:01:48.489Z,34.60
2018-07-25T12:10:13.211Z,34.80
2018-07-25T12:30:43.350Z,35.60
2018-07-25T12:33:31.802Z,35.60
2018-07-25T12:36:49.369Z,35.70
2018-07-25T12:39:18.216Z,35.90
2018-07-25T12:41:55.236Z,35.90
2018-07-25T12:44:28.611Z,36.00
2018-07-25T12:47:00.275Z,36.10
2018-07-25T12:49:41.680Z,36.40
2018-07-25T12:52:25.638Z,36.40
2018-07-25T13:00:57.050Z,36.90
2018-07-25T13:03:26.150Z,37.00
2018-07-25T13:05:53.845Z,37.20
2018-07-25T13:11:23.972Z,37.30
2018-07-25T13:16:40.489Z,37.40
2018-07-25T13:19:08.132Z,37.30
2018-07-25T13:21:47.856Z,37.40
2018-07-25T13:24:16.230Z,37.30
2018-07-25T13:29:23.451Z,37.30
2018-07-25T13:31:51.352Z,37.30
2018-07-25T13:34:28.397Z,37.40
2018-07-25T13:36:59.397Z,37.40
2018-07-25T13:42:32.342Z,37.50
2018-07-25T13:45:00.053Z,37.60
2018-07-25T13:47:27.582Z,37.60
2018-07-25T13:49:55.056Z,37.60
2018-07-25T13:52:22.526Z,37.50
2018-07-25T13:54:51.823Z,37.50
2018-07-25T13:57:19.430Z,37.70
2018-07-25T14:02:44.209Z,37.80
2018-07-25T14:05:23.614Z,37.80
2018-07-25T14:08:14.890Z,37.90
2018-07-25T14:16:50.745Z,38.50
2018-07-25T14:19:18.423Z,38.60
2018-07-25T14:21:46.180Z,38.60
2018-07-25T14:24:22.733Z,38.70
2018-07-25T14:27:00.561Z,38.60
2018-07-25T14:29:29.336Z,38.60
2018-07-25T14:31:57.032Z,38.50
2018-07-25T14:34:26.986Z,38.50
2018-07-25T14:36:58.321Z,38.50
2018-07-25T14:42:11.044Z,38.50
2018-07-25T14:44:51.877Z,38.60
2018-07-25T14:47:19.590Z,38.50
2018-07-25T14:49:48.610Z,38.60
2018-07-25T14:52:17.704Z,38.60
2018-07-25T14:57:28.759Z,38.60
2018-07-25T14:59:56.816Z,38.60
2018-07-25T15:02:26.810Z,38.60
2018-07-25T15:04:54.622Z,38.60
2018-07-25T15:07:22.344Z,38.60
2018-07-25T15:09:50.178Z,38.50
2018-07-25T15:12:30.037Z,38.60
2018-07-25T15:14:58.215Z,38.60
2018-07-25T15:17:27.800Z,38.60
2018-07-25T15:19:55.643Z,38.60
2018-07-25T15:22:25.094Z,38.60
2018-07-25T15:24:53.265Z,38.60
2018-07-25T15:27:20.919Z,38.60
2018-07-25T15:29:48.635Z,38.60
2018-07-25T15:32:16.080Z,38.60
2018-07-25T15:34:43.896Z,38.50
2018-07-25T15:37:11.547Z,38.60
2018-07-25T15:39:39.137Z,38.50
2018-07-25T15:42:07.595Z,38.50
2018-07-25T15:44:35.638Z,38.40
2018-07-25T15:47:03.972Z,38.40
2018-07-25T15:49:31.531Z,38.40
2018-07-25T15:51:59.061Z,38.50
2018-07-25T15:54:34.078Z,38.60
2018-07-25T15:57:01.642Z,38.60
2018-07-25T15:59:34.948Z,38.60
2018-07-25T16:02:02.602Z,38.60
2018-07-25T16:04:30.115Z,38.70
2018-07-25T16:06:57.660Z,38.70
2018-07-25T16:09:25.490Z,38.70
2018-07-25T16:18:17.872Z,38.50
2018-07-25T16:23:38.011Z,38.30
2018-07-25T16:28:58.478Z,38.20
2018-07-25T16:43:30.804Z,37.80
2018-07-25T16:51:31.412Z,37.70
2018-07-25T16:54:02.214Z,37.50
2018-07-25T16:57:09.368Z,37.30
2018-07-25T17:02:42.157Z,37.00
2018-07-25T17:13:59.400Z,36.60
2018-07-25T17:16:35.073Z,36.30
2018-07-25T17:22:05.105Z,36.10
2018-07-25T17:24:32.914Z,36.00
2018-07-25T17:33:09.184Z,35.80
2018-07-25T17:35:40.028Z,35.80
2018-07-25T17:47:15.403Z,35.50
2018-07-25T17:55:57.012Z,35.30
2018-07-25T18:03:50.848Z,35.00
2018-07-25T18:06:19.027Z,35.00
2018-07-25T18:08:46.519Z,34.90
2018-07-25T18:11:23.264Z,34.80
2018-07-25T18:13:59.086Z,34.60
2018-07-25T18:16:26.880Z,34.50
2018-07-25T18:42:52.473Z,34.50
2018-07-25T18:45:19.948Z,33.90
2018-07-25T18:47:47.566Z,33.80
2018-07-25T18:50:15.037Z,33.70
2018-07-25T18:52:42.591Z,33.60
2018-07-25T18:55:10.193Z,33.50
2018-07-25T18:57:37.916Z,33.40
2018-07-25T19:00:05.600Z,33.30
2018-07-25T19:02:33.078Z,33.20
2018-07-25T19:05:00.676Z,33.00
2018-07-25T19:07:28.398Z,32.80
2018-07-25T19:09:56.026Z,32.70
2018-07-25T19:12:24.028Z,32.60
2018-07-25T19:14:57.199Z,32.50
2018-07-25T19:17:24.710Z,32.50
2018-07-25T19:19:52.251Z,32.40
2018-07-25T19:24:47.379Z,32.30
2018-07-25T19:27:14.822Z,32.20
2018-07-25T19:29:42.326Z,32.10
2018-07-25T19:32:09.857Z,32.10
2018-07-25T19:34:37.333Z,32.10
2018-07-25T19:37:04.868Z,32.00
2018-07-25T19:39:37.385Z,32.10
2018-07-25T19:42:06.098Z,32.10
2018-07-25T19:44:41.389Z,32.30
2018-07-25T19:47:11.922Z,32.50
2018-07-25T19:49:39.518Z,32.50
2018-07-25T19:52:06.880Z,32.40
2018-07-25T19:54:34.598Z,32.40
2018-07-25T19:57:02.003Z,32.30
2018-07-25T19:59:29.609Z,32.30
2018-07-25T20:01:57.093Z,32.30
2018-07-25T20:04:25.612Z,32.20
2018-07-25T20:06:53.210Z,32.10
2018-07-25T20:09:20.669Z,32.10
2018-07-25T20:11:48.354Z,32.00
2018-07-25T20:14:21.365Z,31.80
2018-07-25T20:16:48.929Z,31.70
2018-07-25T20:19:17.630Z,31.70
2018-07-25T20:21:45.453Z,31.70
2018-07-25T20:24:13.104Z,31.70
2018-07-25T20:26:40.670Z,31.70
2018-07-25T20:29:13.113Z,31.60
2018-07-25T20:31:40.715Z,31.50
2018-07-25T20:34:08.256Z,31.40
2018-07-25T20:36:35.785Z,31.30
2018-07-25T20:39:06.073Z,31.20
2018-07-25T20:41:46.153Z,31.20
2018-07-25T20:44:14.488Z,31.20
2018-07-25T20:46:42.068Z,31.10
2018-07-25T20:49:09.746Z,31.00
2018-07-25T20:51:40.107Z,30.90
2018-07-25T20:54:08.759Z,30.80
2018-07-25T20:56:41.896Z,30.80
2018-07-25T20:59:09.390Z,30.70
2018-07-25T21:01:41.332Z,30.70
2018-07-25T21:04:08.827Z,30.60
2018-07-25T21:06:36.345Z,30.50
2018-07-25T21:09:06.216Z,30.60
2018-07-25T21:11:34.509Z,30.40
2018-07-25T21:14:01.986Z,30.50
2018-07-25T21:16:29.420Z,30.40
2018-07-25T21:18:57.021Z,30.30
2018-07-25T21:21:24.656Z,30.30
2018-07-25T21:23:52.147Z,30.30
2018-07-25T21:26:19.659Z,30.20
2018-07-25T21:28:47.190Z,30.20
2018-07-25T21:31:15.603Z,30.20
2018-07-25T21:33:43.234Z,30.10
2018-07-25T21:36:10.791Z,30.10
2018-07-25T21:38:39.287Z,30.20
2018-07-25T21:41:07.077Z,30.10
2018-07-25T21:43:34.692Z,30.10
2018-07-25T21:46:02.479Z,30.10
2018-07-25T21:48:30.090Z,30.10
2018-07-25T21:50:57.778Z,30.00
2018-07-25T21:53:25.431Z,29.90
2018-07-25T21:55:52.985Z,29.90
2018-07-25T21:58:20.611Z,29.90
2018-07-25T22:00:57.269Z,29.80
2018-07-25T22:03:24.784Z,29.70
2018-07-25T22:05:52.477Z,29.70
2018-07-25T22:08:20.252Z,29.60
2018-07-25T22:10:47.946Z,29.50
2018-07-25T22:13:15.897Z,29.50
2018-07-25T22:15:43.929Z,29.50
2018-07-25T22:18:11.813Z,29.40
2018-07-25T22:20:39.803Z,29.40
2018-07-25T22:23:07.347Z,29.30
2018-07-25T22:25:34.848Z,29.30
2018-07-25T22:28:02.408Z,29.30
2018-07-25T22:30:29.864Z,29.20
2018-07-25T22:32:57.312Z,29.20
2018-07-25T22:35:24.866Z,29.20
2018-07-25T22:37:52.457Z,29.10
2018-07-25T22:40:19.919Z,29.20
2018-07-25T22:42:47.462Z,29.10
2018-07-25T22:45:14.988Z,29.00
2018-07-25T22:47:42.541Z,28.90
2018-07-25T22:50:10.046Z,29.00
2018-07-25T22:52:37.599Z,28.90
2018-07-25T22:55:05.375Z,28.90
2018-07-25T22:57:32.920Z,28.80
2018-07-25T23:00:00.396Z,28.80
2018-07-25T23:02:29.317Z,28.80
2018-07-25T23:04:56.780Z,28.70
2018-07-25T23:09:51.634Z,28.60
2018-07-25T23:12:19.190Z,28.50
2018-07-25T23:14:46.802Z,28.40
2018-07-25T23:17:14.308Z,28.40
2018-07-25T23:19:41.831Z,28.30
2018-07-25T23:24:36.847Z,28.40
2018-07-25T23:27:04.347Z,28.40
2018-07-25T23:29:31.928Z,28.30
2018-07-25T23:31:59.407Z,28.30
2018-07-25T23:34:26.899Z,28.30
2018-07-25T23:36:54.421Z,28.30
2018-07-25T23:39:21.980Z,28.30
2018-07-25T23:41:49.587Z,28.20
2018-07-25T23:44:17.056Z,28.30
2018-07-25T23:46:44.519Z,28.30
2018-07-25T23:49:11.968Z,28.30
2018-07-25T23:51:39.490Z,28.30
2018-07-25T23:54:07.055Z,28.20
2018-07-25T23:56:34.652Z,28.20
2018-07-25T23:59:02.109Z,28.20
